createdAt,value
2017-12-29T00:01:41.042Z,85.17
2017-12-29T00:04:12.675Z,84.57
2017-12-29T00:06:45.307Z,84.19
2017-12-29T00:09:17.921Z,84.28
2017-12-29T00:11:50.639Z,84.13
2017-12-29T00:14:22.366Z,84.02
2017-12-29T00:16:58.959Z,83.63
2017-12-29T00:19:29.810Z,83.67
2017-12-29T00:22:02.230Z,84.00
2017-12-29T00:24:34.956Z,84.01
2017-12-29T00:27:10.143Z,83.99
2017-12-29T00:29:41.797Z,83.75
2017-12-29T00:32:12.649Z,83.00
2017-12-29T00:34:42.322Z,82.79
2017-12-29T00:37:15.328Z,82.47
2017-12-29T00:39:46.520Z,83.25
2017-12-29T00:42:18.565Z,83.27
2017-12-29T00:44:51.632Z,83.49
2017-12-29T00:47:24.597Z,83.91
2017-12-29T00:49:57.504Z,83.98
2017-12-29T00:52:31.926Z,83.93
2017-12-29T00:55:04.728Z,84.12
2017-12-29T00:57:40.249Z,84.11
2017-12-29T01:00:11.810Z,84.22
2017-12-29T01:02:43.438Z,84.34
2017-12-29T01:05:13.605Z,84.50
2017-12-29T01:07:45.598Z,84.48
2017-12-29T01:10:16.397Z,84.13
2017-12-29T01:12:48.117Z,84.19
2017-12-29T01:15:19.316Z,84.05
2017-12-29T01:17:51.120Z,84.27
2017-12-29T01:20:24.070Z,83.89
2017-12-29T01:22:57.337Z,83.38
2017-12-29T01:25:30.176Z,82.87
2017-12-29T01:28:00.813Z,83.30
2017-12-29T01:30:33.949Z,83.69
2017-12-29T01:33:07.383Z,83.63
2017-12-29T01:35:37.466Z,83.76
2017-12-29T01:38:09.322Z,83.54
2017-12-29T01:40:39.331Z,83.80
2017-12-29T01:43:12.078Z,83.86
2017-12-29T01:45:43.153Z,83.91
2017-12-29T01:48:16.731Z,84.04
2017-12-29T01:50:49.069Z,84.03
2017-12-29T01:53:19.135Z,84.01
2017-12-29T01:55:49.474Z,83.73
2017-12-29T01:58:19.608Z,83.67
2017-12-29T02:00:49.943Z,83.50
2017-12-29T02:03:22.414Z,83.27
2017-12-29T02:05:56.521Z,83.14
2017-12-29T02:08:30.561Z,83.35
2017-12-29T02:11:03.478Z,83.05
2017-12-29T02:13:38.179Z,82.58
2017-12-29T02:16:12.431Z,82.62
2017-12-29T02:18:46.056Z,82.23
2017-12-29T02:21:21.176Z,82.16
2017-12-29T02:23:54.026Z,81.82
2017-12-29T02:26:28.181Z,81.77
2017-12-29T02:29:02.116Z,81.68
2017-12-29T02:31:36.616Z,81.78
2017-12-29T02:34:12.052Z,81.71
2017-12-29T02:36:46.374Z,81.52
2017-12-29T02:39:19.034Z,81.61
2017-12-29T02:41:53.745Z,81.50
2017-12-29T02:44:27.921Z,81.82
2017-12-29T02:47:02.899Z,81.89
2017-12-29T02:49:36.954Z,81.50
2017-12-29T02:54:42.270Z,81.30
2017-12-29T02:57:15.135Z,81.08
2017-12-29T02:59:46.968Z,81.08
2017-12-29T03:02:20.135Z,80.83
2017-12-29T03:04:52.440Z,80.84
2017-12-29T03:07:26.371Z,80.84
2017-12-29T03:09:59.743Z,81.08
2017-12-29T03:12:33.593Z,81.15
2017-12-29T03:15:06.028Z,81.42
2017-12-29T03:17:35.752Z,81.32
2017-12-29T03:20:09.780Z,81.41
2017-12-29T03:22:40.341Z,81.45
2017-12-29T03:25:12.974Z,81.44
2017-12-29T03:27:42.895Z,80.95
2017-12-29T03:30:16.841Z,81.00
2017-12-29T03:32:48.880Z,81.15
2017-12-29T03:35:19.492Z,81.86
2017-12-29T03:37:48.895Z,81.60
2017-12-29T03:40:21.562Z,81.54
2017-12-29T03:42:54.651Z,81.56
2017-12-29T03:45:25.992Z,81.81
2017-12-29T03:47:57.820Z,81.39
2017-12-29T03:50:33.273Z,81.28
2017-12-29T03:53:04.369Z,81.51
2017-12-29T03:55:37.087Z,81.29
2017-12-29T03:58:09.829Z,81.42
2017-12-29T04:00:42.567Z,81.62
2017-12-29T04:03:14.620Z,81.99
2017-12-29T04:08:25.409Z,82.23
2017-12-29T04:10:55.981Z,82.33
2017-12-29T04:13:25.901Z,82.96
2017-12-29T04:15:55.743Z,83.03
2017-12-29T04:18:25.747Z,83.19
2017-12-29T04:20:57.763Z,83.06
2017-12-29T04:23:28.213Z,83.37
2017-12-29T04:28:35.980Z,83.32
2017-12-29T04:31:06.066Z,83.55
2017-12-29T04:33:37.732Z,83.69
2017-12-29T04:36:07.435Z,84.01
2017-12-29T04:38:37.398Z,84.26
2017-12-29T04:41:08.471Z,84.38
2017-12-29T04:43:38.714Z,84.42
2017-12-29T04:46:09.140Z,84.44
2017-12-29T04:48:39.861Z,84.85
2017-12-29T04:51:12.340Z,85.07
2017-12-29T04:53:44.547Z,85.11
2017-12-29T04:56:16.360Z,85.38
2017-12-29T04:58:50.198Z,85.53
2017-12-29T05:01:21.885Z,85.68
2017-12-29T05:03:54.007Z,85.78
2017-12-29T05:06:24.012Z,85.92
2017-12-29T05:08:56.592Z,85.74
2017-12-29T05:11:26.597Z,85.77
2017-12-29T05:13:58.726Z,85.71
2017-12-29T05:16:31.406Z,85.71
2017-12-29T05:19:03.955Z,85.96
2017-12-29T05:21:36.046Z,86.25
2017-12-29T05:24:08.387Z,86.11
2017-12-29T05:26:41.971Z,86.24
2017-12-29T05:29:14.008Z,86.24
2017-12-29T05:31:44.942Z,86.18
2017-12-29T05:34:17.171Z,85.97
2017-12-29T05:36:48.204Z,86.20
2017-12-29T05:39:22.828Z,86.40
2017-12-29T05:41:52.612Z,86.38
2017-12-29T05:44:22.450Z,86.36
2017-12-29T05:46:53.533Z,86.31
2017-12-29T05:49:23.366Z,86.40
2017-12-29T05:51:57.426Z,86.63
2017-12-29T05:54:30.128Z,86.56
2017-12-29T05:57:03.000Z,86.66
2017-12-29T05:59:33.508Z,86.07
2017-12-29T06:02:03.740Z,85.57
2017-12-29T06:04:35.371Z,86.06
2017-12-29T06:07:09.442Z,85.89
2017-12-29T06:09:41.398Z,85.87
2017-12-29T06:14:50.732Z,85.78
2017-12-29T06:17:26.160Z,85.79
2017-12-29T06:19:56.857Z,85.82
2017-12-29T06:22:27.521Z,85.77
2017-12-29T06:24:57.574Z,86.12
2017-12-29T06:27:29.052Z,86.09
2017-12-29T06:30:00.685Z,86.41
2017-12-29T06:32:33.134Z,86.78
2017-12-29T06:35:03.084Z,86.73
2017-12-29T06:40:13.477Z,86.41
2017-12-29T06:42:47.867Z,86.50
2017-12-29T06:45:18.296Z,86.67
2017-12-29T06:47:52.269Z,86.80
2017-12-29T06:50:24.172Z,87.16
2017-12-29T06:52:54.640Z,86.51
2017-12-29T06:55:25.077Z,86.31
2017-12-29T06:57:56.587Z,85.95
2017-12-29T07:00:30.647Z,85.87
2017-12-29T07:03:01.116Z,85.60
2017-12-29T07:05:32.046Z,85.90
2017-12-29T07:08:05.105Z,86.25
2017-12-29T07:10:37.542Z,86.37
2017-12-29T07:13:11.852Z,86.59
2017-12-29T07:15:44.256Z,86.66
2017-12-29T07:18:19.761Z,86.72
2017-12-29T07:20:53.812Z,86.87
2017-12-29T07:23:29.271Z,87.03
2017-12-29T07:26:02.923Z,87.10
2017-12-29T07:28:35.686Z,87.14
2017-12-29T07:31:08.791Z,86.98
2017-12-29T07:33:41.024Z,86.89
2017-12-29T07:36:11.630Z,86.88
2017-12-29T07:38:41.094Z,86.51
2017-12-29T07:41:11.027Z,86.09
2017-12-29T07:43:40.434Z,86.05
2017-12-29T07:46:10.848Z,86.25
2017-12-29T07:48:43.520Z,86.18
2017-12-29T07:51:13.932Z,86.17
2017-12-29T07:53:43.973Z,86.26
2017-12-29T07:56:14.504Z,86.21
2017-12-29T07:58:45.141Z,85.78
2017-12-29T08:01:17.778Z,85.35
2017-12-29T08:03:47.442Z,85.12
2017-12-29T08:06:22.150Z,85.17
2017-12-29T08:08:53.922Z,85.25
2017-12-29T08:11:28.557Z,84.91
2017-12-29T08:14:01.311Z,85.16
2017-12-29T08:19:06.700Z,85.28
2017-12-29T08:21:35.665Z,84.97
2017-12-29T08:26:40.926Z,85.21
2017-12-29T08:29:10.269Z,85.17
2017-12-29T08:31:39.803Z,85.45
2017-12-29T08:34:08.887Z,85.32
2017-12-29T08:36:37.808Z,85.12
2017-12-29T08:39:07.038Z,85.26
2017-12-29T08:41:37.002Z,85.14
2017-12-29T08:44:05.884Z,85.26
2017-12-29T08:46:35.957Z,85.44
2017-12-29T08:49:05.039Z,85.36
2017-12-29T08:51:33.957Z,85.35
2017-12-29T08:54:08.237Z,85.17
2017-12-29T08:56:38.921Z,85.08
2017-12-29T08:59:08.034Z,84.87
2017-12-29T09:01:39.075Z,84.64
2017-12-29T09:04:08.189Z,84.89
2017-12-29T09:06:37.162Z,85.19
2017-12-29T09:09:06.992Z,85.21
2017-12-29T09:11:36.791Z,84.85
2017-12-29T09:14:05.881Z,85.01
2017-12-29T09:16:38.122Z,84.84
2017-12-29T09:19:07.452Z,84.99
2017-12-29T09:21:38.740Z,84.73
2017-12-29T09:24:09.898Z,84.54
2017-12-29T09:26:41.611Z,84.20
2017-12-29T09:29:13.854Z,84.36
2017-12-29T09:31:43.631Z,84.12
2017-12-29T09:34:12.684Z,84.29
2017-12-29T09:36:41.844Z,83.93
2017-12-29T09:39:11.634Z,83.72
2017-12-29T09:41:40.801Z,83.50
2017-12-29T09:44:12.164Z,83.10
2017-12-29T09:46:41.661Z,82.70
2017-12-29T09:49:10.752Z,82.99
2017-12-29T09:54:14.470Z,83.21
2017-12-29T09:56:43.348Z,82.95
2017-12-29T09:59:13.733Z,82.96
2017-12-29T10:01:43.015Z,82.99
2017-12-29T10:04:16.246Z,82.80
2017-12-29T10:06:45.269Z,82.92
2017-12-29T10:09:14.252Z,83.26
2017-12-29T10:14:17.684Z,82.95
2017-12-29T10:16:46.609Z,83.14
2017-12-29T10:19:16.590Z,83.23
2017-12-29T10:21:45.612Z,83.34
2017-12-29T10:24:14.578Z,83.60
2017-12-29T10:26:43.682Z,83.58
2017-12-29T10:29:12.719Z,83.53
2017-12-29T10:31:41.725Z,83.69
2017-12-29T10:34:12.333Z,83.50
2017-12-29T10:36:42.007Z,83.34
2017-12-29T10:39:11.574Z,83.63
2017-12-29T10:41:41.439Z,83.53
2017-12-29T10:44:10.527Z,83.86
2017-12-29T10:46:39.610Z,84.26
2017-12-29T10:49:08.738Z,84.44
2017-12-29T10:51:37.782Z,84.10
2017-12-29T10:54:07.427Z,83.92
2017-12-29T10:56:37.147Z,83.78
2017-12-29T10:59:06.329Z,83.64
2017-12-29T11:01:35.741Z,83.55
2017-12-29T11:04:04.797Z,83.48
2017-12-29T11:06:34.008Z,83.81
2017-12-29T11:09:03.215Z,83.94
2017-12-29T11:11:33.140Z,84.16
2017-12-29T11:14:02.234Z,84.05
2017-12-29T11:16:31.358Z,84.14
2017-12-29T11:19:01.294Z,84.45
2017-12-29T11:21:30.257Z,84.70
2017-12-29T11:23:59.363Z,84.87
2017-12-29T11:26:29.305Z,84.96
2017-12-29T11:28:58.648Z,84.94
2017-12-29T11:31:27.849Z,84.62
2017-12-29T11:33:57.146Z,85.15
2017-12-29T11:36:30.269Z,85.15
2017-12-29T11:39:00.178Z,85.09
2017-12-29T11:41:29.671Z,85.74
2017-12-29T11:43:58.560Z,86.04
2017-12-29T11:46:31.338Z,85.93
2017-12-29T11:49:00.436Z,86.12
2017-12-29T11:51:29.718Z,86.29
2017-12-29T11:54:00.607Z,86.40
2017-12-29T11:56:29.586Z,86.82
2017-12-29T11:58:59.198Z,87.82
2017-12-29T12:01:28.421Z,88.08
2017-12-29T12:03:58.204Z,88.44
2017-12-29T12:06:27.130Z,88.42
2017-12-29T12:08:56.343Z,88.64
2017-12-29T12:11:25.369Z,88.55
2017-12-29T12:13:54.505Z,88.52
2017-12-29T12:16:23.564Z,88.71
2017-12-29T12:18:54.436Z,88.50
2017-12-29T12:21:23.891Z,88.21
2017-12-29T12:23:53.009Z,87.90
2017-12-29T12:26:22.058Z,87.88
2017-12-29T12:28:51.402Z,88.37
2017-12-29T12:31:21.178Z,88.12
2017-12-29T12:33:50.051Z,88.39
2017-12-29T12:36:19.033Z,88.39
2017-12-29T12:38:50.668Z,88.18
2017-12-29T12:41:19.723Z,88.35
2017-12-29T12:43:52.264Z,88.15
2017-12-29T12:46:22.044Z,88.21
2017-12-29T12:48:53.153Z,88.31
2017-12-29T12:51:25.718Z,88.13
2017-12-29T12:53:55.585Z,87.87
2017-12-29T12:56:24.631Z,87.62
2017-12-29T12:58:54.466Z,87.51
2017-12-29T13:01:23.612Z,87.72
2017-12-29T13:03:52.615Z,87.89
2017-12-29T13:06:22.776Z,87.45
2017-12-29T13:08:54.328Z,87.53
2017-12-29T13:11:24.171Z,88.11
2017-12-29T13:13:53.027Z,89.07
2017-12-29T13:16:22.201Z,88.79
2017-12-29T13:18:52.972Z,88.52
2017-12-29T13:21:22.203Z,88.34
2017-12-29T13:23:51.133Z,89.86
2017-12-29T13:26:21.810Z,90.66
2017-12-29T13:28:50.853Z,90.74
2017-12-29T13:31:20.923Z,90.69
2017-12-29T13:33:50.535Z,90.89
2017-12-29T13:36:19.844Z,91.08
2017-12-29T13:38:49.128Z,90.84
2017-12-29T13:41:18.213Z,91.16
2017-12-29T13:43:48.082Z,90.73
2017-12-29T13:46:17.142Z,90.41
2017-12-29T13:48:47.007Z,90.11
2017-12-29T13:51:16.232Z,90.04
2017-12-29T13:53:45.707Z,90.01
2017-12-29T13:56:14.814Z,89.91
2017-12-29T13:58:44.514Z,89.67
2017-12-29T14:01:15.141Z,89.74
2017-12-29T14:03:47.126Z,89.57
2017-12-29T14:06:18.297Z,89.54
2017-12-29T14:08:53.884Z,89.29
2017-12-29T14:11:24.383Z,89.37
2017-12-29T14:13:53.595Z,89.45
2017-12-29T14:16:23.153Z,89.70
2017-12-29T14:18:52.432Z,89.80
2017-12-29T14:21:22.414Z,89.83
2017-12-29T14:23:52.371Z,90.56
2017-12-29T14:26:21.318Z,90.54
2017-12-29T14:28:50.220Z,90.57
2017-12-29T14:31:22.970Z,90.15
2017-12-29T14:33:52.009Z,90.04
2017-12-29T14:36:21.320Z,90.27
2017-12-29T14:38:50.750Z,90.13
2017-12-29T14:41:20.353Z,90.74
2017-12-29T14:43:50.009Z,90.77
2017-12-29T14:46:19.747Z,90.78
2017-12-29T14:48:48.714Z,90.70
2017-12-29T14:51:17.678Z,91.05
2017-12-29T14:53:53.988Z,91.64
2017-12-29T14:56:23.299Z,91.96
2017-12-29T14:58:52.402Z,92.85
2017-12-29T15:01:23.715Z,93.05
2017-12-29T15:03:52.764Z,93.00
2017-12-29T15:06:22.081Z,93.01
2017-12-29T15:08:51.660Z,92.47
2017-12-29T15:11:21.556Z,92.00
2017-12-29T15:13:50.661Z,92.00
2017-12-29T15:16:20.415Z,91.85
2017-12-29T15:18:49.566Z,91.65
2017-12-29T15:21:18.499Z,91.27
2017-12-29T15:23:48.371Z,91.39
2017-12-29T15:26:17.558Z,90.95
2017-12-29T15:28:46.674Z,91.12
2017-12-29T15:31:16.670Z,91.07
2017-12-29T15:33:45.627Z,90.89
2017-12-29T15:36:14.756Z,91.05
2017-12-29T15:38:43.681Z,90.97
2017-12-29T15:41:12.586Z,91.17
2017-12-29T15:43:41.857Z,91.54
2017-12-29T15:46:14.939Z,90.53
2017-12-29T15:48:44.146Z,90.01
2017-12-29T15:51:14.145Z,89.55
2017-12-29T15:53:43.471Z,89.27
2017-12-29T15:56:13.469Z,88.95
2017-12-29T15:58:43.918Z,87.86
2017-12-29T16:01:26.214Z,87.95
2017-12-29T16:03:55.716Z,88.87
2017-12-29T16:06:24.770Z,89.04
2017-12-29T16:08:55.260Z,89.16
2017-12-29T16:11:24.469Z,91.50
2017-12-29T16:13:53.466Z,90.83
2017-12-29T16:16:25.389Z,90.08
2017-12-29T16:18:54.772Z,89.23
2017-12-29T16:21:23.708Z,91.35
2017-12-29T16:26:26.912Z,93.59
2017-12-29T16:28:56.038Z,94.23
2017-12-29T16:31:26.464Z,92.50
2017-12-29T16:33:55.558Z,91.84
2017-12-29T16:36:24.629Z,91.75
2017-12-29T16:38:53.647Z,91.22
2017-12-29T16:41:22.544Z,90.78
2017-12-29T16:43:52.223Z,91.38
2017-12-29T16:46:22.156Z,92.98
2017-12-29T16:48:51.447Z,91.76
2017-12-29T16:51:20.682Z,90.61
2017-12-29T16:53:50.676Z,90.31
2017-12-29T16:56:19.588Z,90.61
2017-12-29T16:58:49.459Z,89.52
2017-12-29T17:01:18.744Z,89.17
2017-12-29T17:03:48.051Z,90.05
2017-12-29T17:06:16.967Z,92.28
2017-12-29T17:08:46.981Z,91.65
2017-12-29T17:11:16.188Z,90.04
2017-12-29T17:13:46.117Z,90.54
2017-12-29T17:16:21.670Z,89.80
2017-12-29T17:18:50.782Z,89.82
2017-12-29T17:21:19.638Z,90.27
2017-12-29T17:23:48.810Z,89.51
2017-12-29T17:26:18.717Z,89.66
2017-12-29T17:28:55.359Z,90.54
2017-12-29T17:31:26.644Z,90.45
2017-12-29T17:33:55.956Z,89.49
2017-12-29T17:36:25.185Z,89.32
2017-12-29T17:38:54.139Z,89.14
2017-12-29T17:41:23.380Z,89.45
2017-12-29T17:43:52.666Z,89.35
2017-12-29T17:46:21.513Z,89.29
2017-12-29T17:48:50.530Z,89.06
2017-12-29T17:51:21.575Z,90.40
2017-12-29T17:53:51.588Z,91.56
2017-12-29T17:56:20.895Z,90.71
2017-12-29T17:58:50.032Z,89.90
2017-12-29T18:01:19.075Z,91.66
2017-12-29T18:03:49.108Z,92.66
2017-12-29T18:06:18.300Z,92.42
2017-12-29T18:08:48.430Z,92.19
2017-12-29T18:11:18.019Z,91.79
2017-12-29T18:13:49.099Z,90.36
2017-12-29T18:16:18.784Z,89.55
2017-12-29T18:18:48.190Z,89.65
2017-12-29T18:21:19.934Z,89.74
2017-12-29T18:23:51.929Z,89.68
2017-12-29T18:26:23.289Z,90.77
2017-12-29T18:28:57.805Z,90.27
2017-12-29T18:31:30.010Z,90.56
2017-12-29T18:34:03.405Z,92.21
2017-12-29T18:36:34.389Z,92.15
2017-12-29T18:39:03.924Z,91.82
2017-12-29T18:41:33.569Z,92.03
2017-12-29T18:44:05.881Z,92.00
2017-12-29T18:46:35.376Z,92.08
2017-12-29T18:49:05.115Z,92.32
2017-12-29T18:51:34.458Z,93.18
2017-12-29T18:54:03.604Z,93.42
2017-12-29T18:56:33.226Z,93.28
2017-12-29T19:01:36.922Z,92.20
2017-12-29T19:04:06.124Z,91.88
2017-12-29T19:06:35.439Z,91.27
2017-12-29T19:09:05.874Z,91.18
2017-12-29T19:11:35.591Z,90.22
2017-12-29T19:14:05.179Z,90.72
2017-12-29T19:16:35.223Z,90.64
2017-12-29T19:19:04.617Z,90.60
2017-12-29T19:21:36.049Z,90.61
2017-12-29T19:24:05.459Z,90.58
2017-12-29T19:26:34.463Z,90.98
2017-12-29T19:29:06.090Z,90.55
2017-12-29T19:31:35.408Z,90.20
2017-12-29T19:34:05.772Z,90.29
2017-12-29T19:36:37.617Z,90.40
2017-12-29T19:39:07.135Z,91.06
2017-12-29T19:41:37.684Z,91.38
2017-12-29T19:44:07.849Z,91.24
2017-12-29T19:46:36.938Z,90.58
2017-12-29T19:49:06.250Z,90.37
2017-12-29T19:51:35.349Z,90.42
2017-12-29T19:54:05.239Z,90.02
2017-12-29T19:56:35.866Z,89.98
2017-12-29T19:59:05.908Z,90.22
2017-12-29T20:01:37.914Z,90.25
2017-12-29T20:04:08.340Z,89.85
2017-12-29T20:06:37.407Z,89.42
2017-12-29T20:09:15.426Z,89.33
2017-12-29T20:11:45.327Z,89.41
2017-12-29T20:14:14.734Z,88.92
2017-12-29T20:16:44.928Z,89.54
2017-12-29T20:19:15.268Z,89.91
2017-12-29T20:21:45.595Z,90.30
2017-12-29T20:24:15.299Z,90.35
2017-12-29T20:26:45.000Z,90.26
2017-12-29T20:29:15.034Z,89.64
2017-12-29T20:31:45.349Z,89.66
2017-12-29T20:34:14.470Z,89.17
2017-12-29T20:36:44.356Z,88.76
2017-12-29T20:39:14.236Z,88.22
2017-12-29T20:41:44.110Z,87.90
2017-12-29T20:44:13.664Z,87.95
2017-12-29T20:46:42.797Z,87.16
2017-12-29T20:49:12.228Z,86.18
2017-12-29T20:51:41.264Z,84.75
2017-12-29T20:54:12.115Z,83.67
2017-12-29T20:56:41.960Z,83.12
2017-12-29T20:59:12.007Z,83.55
2017-12-29T21:04:16.408Z,84.31
2017-12-29T21:06:45.472Z,85.78
2017-12-29T21:09:17.050Z,85.61
2017-12-29T21:11:51.878Z,85.95
2017-12-29T21:14:21.015Z,86.81
2017-12-29T21:16:50.001Z,86.97
2017-12-29T21:21:53.597Z,86.34
2017-12-29T21:24:22.686Z,87.35
2017-12-29T21:26:52.414Z,87.85
2017-12-29T21:29:21.719Z,88.54
2017-12-29T21:31:51.553Z,89.53
2017-12-29T21:34:21.602Z,89.34
2017-12-29T21:36:51.282Z,88.83
2017-12-29T21:39:21.007Z,89.00
2017-12-29T21:41:51.406Z,89.43
2017-12-29T21:44:20.367Z,88.82
2017-12-29T21:46:50.283Z,89.05
2017-12-29T21:49:20.098Z,89.08
2017-12-29T21:51:49.317Z,89.09
2017-12-29T21:54:18.613Z,88.65
2017-12-29T21:56:53.617Z,89.09
2017-12-29T21:59:22.911Z,89.57
2017-12-29T22:01:52.676Z,89.09
2017-12-29T22:06:57.994Z,87.70
2017-12-29T22:09:28.610Z,86.05
2017-12-29T22:11:58.444Z,86.79
2017-12-29T22:14:30.806Z,88.11
2017-12-29T22:16:59.697Z,88.18
2017-12-29T22:19:28.800Z,88.12
2017-12-29T22:21:57.708Z,87.81
2017-12-29T22:24:27.821Z,88.16
2017-12-29T22:26:57.358Z,87.35
2017-12-29T22:29:27.538Z,86.90
2017-12-29T22:31:56.534Z,86.62
2017-12-29T22:34:25.493Z,87.21
2017-12-29T22:36:54.575Z,87.82
2017-12-29T22:39:23.710Z,87.60
2017-12-29T22:41:52.603Z,87.52
2017-12-29T22:44:21.653Z,87.18
2017-12-29T22:46:50.866Z,86.58
2017-12-29T22:49:19.905Z,87.11
2017-12-29T22:51:48.926Z,87.57
2017-12-29T22:54:17.880Z,87.33
2017-12-29T22:56:46.695Z,86.66
2017-12-29T22:59:15.487Z,85.63
2017-12-29T23:01:46.302Z,86.62
2017-12-29T23:04:15.240Z,87.07
2017-12-29T23:06:44.136Z,86.87
2017-12-29T23:09:13.230Z,87.31
2017-12-29T23:11:42.015Z,87.17
2017-12-29T23:14:10.827Z,86.59
2017-12-29T23:16:40.540Z,86.85
2017-12-29T23:19:09.403Z,87.08
2017-12-29T23:21:38.236Z,86.92
2017-12-29T23:24:07.913Z,87.13
2017-12-29T23:26:36.752Z,87.46
2017-12-29T23:29:05.685Z,87.79
2017-12-29T23:34:08.700Z,87.61
2017-12-29T23:36:37.513Z,86.93
2017-12-29T23:39:06.431Z,85.57
2017-12-29T23:41:35.349Z,86.10
2017-12-29T23:44:04.212Z,86.40
2017-12-29T23:46:33.073Z,86.37
2017-12-29T23:49:01.867Z,85.83
2017-12-29T23:51:31.629Z,85.32
2017-12-29T23:54:00.503Z,84.85
2017-12-29T23:56:29.416Z,83.20
2017-12-29T23:58:58.251Z,83.05
